Time;durP1;ratioP1;P1;durP2;ratioP2;P2;SDS_P1;SDS_P2;PMS_P1;PMS_P2;Temp;Humidity;BMP_temperature;BMP_pressure;BME280_temperature;BME280_humidity;BME280_pressure;Samples;Min_cycle;Max_cycle;Signal;HPM_P1;HPM_P2
2022/07/23 00:00:43;;;;;;;;;;;;;;;18.77;53.84;91319.47;5052144;28;20398;-68
2022/07/23 00:03:09;;;;;;;;;;;;;;;18.81;53.83;91314.97;5052043;28;20413;-68
2022/07/23 00:05:34;;;;;;;;;;;;;;;18.79;53.37;91326.09;5084155;28;19927;-68
2022/07/23 00:08:00;;;;;;;;;;;;;;;18.76;53.43;91324.09;5052276;28;20394;-68
2022/07/23 00:10:25;;;;;;;;;;;;;;;18.74;53.41;91323.66;5052000;28;19921;-68
2022/07/23 00:12:50;;;;;;;;;;;;;;;18.77;53.75;91328.34;5051903;28;20476;-68
2022/07/23 00:15:16;;;;;;;;;;;;;;;18.73;53.92;91327.47;5051922;28;20434;-68
2022/07/23 00:17:41;;;;;;;;;;;;;;;18.66;54.96;91332.72;5051673;28;20409;-68
2022/07/23 00:20:07;;;;;;;;;;;;;;;18.54;55.11;91338.13;5051828;28;19921;-68
2022/07/23 00:22:32;;;;;;;;;;;;;;;18.32;56.09;91330.66;5051744;28;19921;-68
2022/07/23 00:24:57;;;;;;;;;;;;;;;18.16;56.43;91334.09;5051458;28;19952;-68
2022/07/23 00:27:23;;;;;;;;;;;;;;;18.12;56.51;91338.59;5051737;28;20349;-68
2022/07/23 00:29:48;;;;;;;;;;;;;;;18.01;56.86;91329.47;5051732;28;20021;-68
2022/07/23 00:32:14;;;;;;;;;;;;;;;17.94;57.06;91326.56;5051601;28;19920;-68
2022/07/23 00:34:39;;;;;;;;;;;;;;;17.89;57.00;91332.22;5051504;28;20020;-68
2022/07/23 00:37:04;;;;;;;;;;;;;;;17.83;57.35;91336.25;5051574;28;19932;-68
2022/07/23 00:39:30;;;;;;;;;;;;;;;17.71;57.91;91336.31;5051529;28;19920;-68
2022/07/23 00:41:55;;;;;;;;;;;;;;;17.65;57.92;91320.34;5051615;28;19931;-68
2022/07/23 00:44:22;;;;;;;;;;;;;;;17.64;57.77;91343.00;5051491;28;19982;-69
2022/07/23 00:46:48;;;;;;;;;;;;;;;17.63;57.67;91319.91;5051347;28;20425;-69
2022/07/23 00:49:13;;;;;;;;;;;;;;;17.64;57.74;91320.72;5051536;28;19921;-68
2022/07/23 00:51:39;;;;;;;;;;;;;;;17.54;57.90;91330.06;5051502;28;19944;-69
2022/07/23 00:54:04;;;;;;;;;;;;;;;17.54;58.19;91324.69;5051447;28;20418;-68
2022/07/23 00:56:30;;;;;;;;;;;;;;;17.53;58.09;91325.03;5051077;28;20368;-69
2022/07/23 00:58:55;;;;;;;;;;;;;;;17.50;58.00;91323.78;5051320;28;19944;-69
2022/07/23 01:01:21;;;;;;;;;;;;;;;17.44;57.91;91322.44;5051395;28;19917;-69
2022/07/23 01:03:46;;;;;;;;;;;;;;;17.48;57.75;91323.34;5051258;28;19956;-69
2022/07/23 01:06:11;;;;;;;;;;;;;;;17.53;57.49;91319.63;5051262;28;19917;-69
2022/07/23 01:08:37;;;;;;;;;;;;;;;17.54;57.49;91319.28;5051237;28;19916;-69
2022/07/23 01:11:03;;;;;;;;;;;;;;;17.58;56.85;91322.09;5051241;28;19917;-69
2022/07/23 01:13:29;;;;;;;;;;;;;;;17.61;56.87;91324.09;5051260;28;19959;-69
2022/07/23 01:15:54;;;;;;;;;;;;;;;17.56;56.64;91327.81;5051015;28;19959;-70
2022/07/23 01:18:19;;;;;;;;;;;;;;;17.60;56.71;91317.91;5051082;28;19932;-69
2022/07/23 01:20:45;;;;;;;;;;;;;;;17.55;56.67;91320.06;5051143;28;19917;-69
2022/07/23 01:23:10;;;;;;;;;;;;;;;17.59;56.64;91316.34;5051093;28;19923;-68
2022/07/23 01:25:35;;;;;;;;;;;;;;;17.60;56.76;91319.81;5050977;28;19921;-68
2022/07/23 01:28:01;;;;;;;;;;;;;;;17.57;56.30;91317.81;5051118;28;19916;-69
2022/07/23 01:30:26;;;;;;;;;;;;;;;17.55;56.42;91314.69;5051050;28;19917;-69
2022/07/23 01:32:52;;;;;;;;;;;;;;;17.53;56.15;91314.25;5051019;28;20014;-68
2022/07/23 01:35:17;;;;;;;;;;;;;;;17.50;56.23;91313.00;5050873;28;19923;-69
2022/07/23 01:37:42;;;;;;;;;;;;;;;17.47;56.27;91312.91;5051016;28;20029;-68
2022/07/23 01:40:08;;;;;;;;;;;;;;;17.44;56.36;91306.31;5050952;28;20099;-68
2022/07/23 01:42:33;;;;;;;;;;;;;;;17.42;56.57;91313.16;5050991;28;19916;-68
2022/07/23 01:44:59;;;;;;;;;;;;;;;17.44;56.24;91311.69;5050773;28;19928;-69
2022/07/23 01:47:25;;;;;;;;;;;;;;;17.33;56.66;91314.06;5050947;28;20466;-69
2022/07/23 01:49:50;;;;;;;;;;;;;;;17.26;57.18;91308.50;5050847;28;19924;-69
2022/07/23 01:52:16;;;;;;;;;;;;;;;17.18;57.18;91311.28;5050852;28;19921;-69
2022/07/23 01:54:41;;;;;;;;;;;;;;;17.19;56.97;91313.66;5050615;28;19959;-70
2022/07/23 01:57:07;;;;;;;;;;;;;;;17.23;56.91;91311.09;5050892;28;20008;-70
2022/07/23 01:59:33;;;;;;;;;;;;;;;17.17;57.06;91315.91;5050891;28;20302;-70
2022/07/23 02:01:58;;;;;;;;;;;;;;;17.15;57.09;91312.75;5050855;28;19916;-70
2022/07/23 02:04:24;;;;;;;;;;;;;;;17.12;57.15;91301.91;5195256;22;19923;-64
2022/07/23 02:06:50;;;;;;;;;;;;;;;17.07;57.26;91305.63;5070439;28;19924;-60
2022/07/23 02:09:15;;;;;;;;;;;;;;;17.08;57.26;91314.47;5072539;28;19916;-61
2022/07/23 02:11:41;;;;;;;;;;;;;;;17.01;57.48;91305.06;5074595;28;19923;-61
2022/07/23 02:14:06;;;;;;;;;;;;;;;16.92;57.57;91315.16;5074210;28;20385;-60
2022/07/23 02:16:31;;;;;;;;;;;;;;;16.93;57.29;91310.56;5073965;28;19951;-60
2022/07/23 02:18:57;;;;;;;;;;;;;;;16.84;57.72;91313.34;5074145;28;20297;-61
2022/07/23 02:21:22;;;;;;;;;;;;;;;16.74;58.17;91316.50;5074121;28;19952;-61
2022/07/23 02:23:47;;;;;;;;;;;;;;;16.65;58.82;91308.53;5074012;28;19920;-62
2022/07/23 02:26:13;;;;;;;;;;;;;;;16.56;59.11;91310.53;5073797;28;19970;-63
2022/07/23 02:28:38;;;;;;;;;;;;;;;16.55;59.29;91313.53;5074229;28;19924;-62
2022/07/23 02:31:03;;;;;;;;;;;;;;;16.50;59.27;91313.78;5073963;28;19920;-61
2022/07/23 02:33:29;;;;;;;;;;;;;;;16.48;59.60;91306.84;5073852;28;19916;-60
2022/07/23 02:35:54;;;;;;;;;;;;;;;16.46;59.37;91306.38;5073627;28;19924;-61
2022/07/23 02:38:19;;;;;;;;;;;;;;;16.41;59.74;91312.00;5073724;28;19924;-61
2022/07/23 02:40:45;;;;;;;;;;;;;;;16.42;59.54;91313.56;5073954;28;19917;-63
2022/07/23 02:43:10;;;;;;;;;;;;;;;16.40;59.55;91315.78;5073697;28;20385;-61
2022/07/23 02:45:35;;;;;;;;;;;;;;;16.37;59.50;91311.06;5073545;28;19916;-61
2022/07/23 02:48:01;;;;;;;;;;;;;;;16.35;59.83;91318.69;5073538;28;19924;-61
2022/07/23 02:50:26;;;;;;;;;;;;;;;16.33;59.59;91317.44;5073521;28;19917;-61
2022/07/23 02:52:51;;;;;;;;;;;;;;;16.28;59.93;91310.41;5073508;28;19916;-61
2022/07/23 02:55:17;;;;;;;;;;;;;;;16.22;60.18;91324.34;5073233;28;19986;-60
2022/07/23 02:57:42;;;;;;;;;;;;;;;16.18;60.08;91330.41;5073375;28;19923;-61
2022/07/23 03:00:08;;;;;;;;;;;;;;;16.18;60.14;91332.28;5073327;28;19923;-63
2022/07/23 03:02:34;;;;;;;;;;;;;;;16.15;60.20;91331.06;5073257;28;19916;-61
2022/07/23 03:04:59;;;;;;;;;;;;;;;16.16;60.12;91331.84;5073166;28;19931;-61
2022/07/23 03:07:24;;;;;;;;;;;;;;;16.21;60.03;91333.53;5073180;28;20050;-61
2022/07/23 03:09:50;;;;;;;;;;;;;;;16.18;60.03;91325.03;5073025;28;19916;-61
2022/07/23 03:12:15;;;;;;;;;;;;;;;16.28;59.65;91329.19;5073024;28;19917;-61
2022/07/23 03:14:41;;;;;;;;;;;;;;;16.31;59.48;91333.13;5072865;28;19917;-60
2022/07/23 03:17:06;;;;;;;;;;;;;;;16.24;59.64;91343.59;5072960;28;20416;-60
2022/07/23 03:19:31;;;;;;;;;;;;;;;16.29;59.76;91346.09;5072753;28;20011;-61
2022/07/23 03:21:57;;;;;;;;;;;;;;;16.32;59.60;91338.16;5073050;28;20010;-60
2022/07/23 03:24:23;;;;;;;;;;;;;;;16.34;59.51;91346.66;5072616;28;19930;-61
2022/07/23 03:26:49;;;;;;;;;;;;;;;16.33;59.83;91342.41;5072994;28;19917;-60
2022/07/23 03:29:14;;;;;;;;;;;;;;;16.32;59.80;91348.09;5072663;28;20458;-62
2022/07/23 03:31:39;;;;;;;;;;;;;;;16.33;59.70;91346.97;5072657;28;20019;-62
2022/07/23 03:34:05;;;;;;;;;;;;;;;16.42;59.71;91347.69;5072513;28;19921;-62
2022/07/23 03:36:30;;;;;;;;;;;;;;;16.43;59.19;91350.03;5072458;28;19924;-63
2022/07/23 03:38:55;;;;;;;;;;;;;;;16.53;58.89;91350.69;5071203;28;19925;-63
2022/07/23 03:41:21;;;;;;;;;;;;;;;16.59;58.57;91341.31;5072498;28;20396;-63
2022/07/23 03:43:46;;;;;;;;;;;;;;;16.67;58.20;91340.44;5072421;28;19955;-62
2022/07/23 03:46:12;;;;;;;;;;;;;;;16.75;57.89;91350.31;5072257;28;19939;-63
2022/07/23 03:48:37;;;;;;;;;;;;;;;16.79;57.59;91342.38;5072391;28;19920;-62
2022/07/23 03:51:03;;;;;;;;;;;;;;;16.83;57.51;91343.25;5072396;28;19922;-62
2022/07/23 03:53:28;;;;;;;;;;;;;;;16.85;57.47;91336.41;5072307;28;20012;-62
2022/07/23 03:55:54;;;;;;;;;;;;;;;16.87;57.32;91344.91;5072321;28;19920;-62
2022/07/23 03:58:19;;;;;;;;;;;;;;;16.95;56.71;91337.88;5072207;28;20419;-62
2022/07/23 04:00:44;;;;;;;;;;;;;;;17.04;56.43;91343.91;5072183;28;19920;-63
2022/07/23 04:03:10;;;;;;;;;;;;;;;17.11;56.12;91344.13;5072223;28;19938;-63
2022/07/23 04:05:35;;;;;;;;;;;;;;;17.20;56.08;91336.75;5071831;28;19935;-62
2022/07/23 04:08:00;;;;;;;;;;;;;;;17.31;55.52;91339.72;5071688;28;20437;-62
2022/07/23 04:10:26;;;;;;;;;;;;;;;17.40;55.35;91339.63;5071856;28;19916;-61
2022/07/23 04:12:51;;;;;;;;;;;;;;;17.47;55.26;91340.59;5071841;28;19916;-62
2022/07/23 04:15:16;;;;;;;;;;;;;;;17.65;54.69;91349.19;5071730;28;19917;-62
2022/07/23 04:17:43;;;;;;;;;;;;;;;17.76;54.26;91349.53;5071820;28;19924;-62
2022/07/23 04:20:09;;;;;;;;;;;;;;;17.88;53.65;91344.09;5071721;28;20374;-62
2022/07/23 04:22:34;;;;;;;;;;;;;;;18.05;53.59;91348.41;5071698;28;19932;-62
2022/07/23 04:24:59;;;;;;;;;;;;;;;18.08;53.58;91342.31;5071646;28;20320;-62
2022/07/23 04:27:25;;;;;;;;;;;;;;;18.08;53.30;91339.63;5071612;28;19923;-62
2022/07/23 04:29:50;;;;;;;;;;;;;;;18.17;53.43;91346.44;5071736;28;19916;-62
2022/07/23 04:32:15;;;;;;;;;;;;;;;18.18;53.81;91339.94;5071151;28;19922;-63
2022/07/23 04:34:41;;;;;;;;;;;;;;;18.22;53.66;91338.09;5071405;28;19912;-62
2022/07/23 04:37:06;;;;;;;;;;;;;;;18.32;53.83;91336.03;5071678;28;19921;-62
2022/07/23 04:39:31;;;;;;;;;;;;;;;18.35;53.51;91338.03;5071567;28;19959;-62
2022/07/23 04:41:57;;;;;;;;;;;;;;;18.43;53.40;91342.47;5071588;28;20385;-62
2022/07/23 04:44:22;;;;;;;;;;;;;;;18.57;53.24;91337.44;5071362;28;19920;-63
2022/07/23 04:46:47;;;;;;;;;;;;;;;18.65;53.29;91344.63;5071412;28;19917;-62
2022/07/23 04:49:13;;;;;;;;;;;;;;;18.72;53.02;91339.38;5071507;28;19978;-62
2022/07/23 04:51:38;;;;;;;;;;;;;;;18.88;52.87;91335.91;5071533;28;20432;-63
2022/07/23 04:54:04;;;;;;;;;;;;;;;19.00;52.56;91339.28;5071325;28;20317;-62
2022/07/23 04:56:29;;;;;;;;;;;;;;;19.07;52.37;91338.66;5071294;28;19973;-62
2022/07/23 04:58:54;;;;;;;;;;;;;;;19.26;52.09;91341.44;5071388;28;20015;-62
2022/07/23 05:01:20;;;;;;;;;;;;;;;19.34;52.32;91335.06;5071444;28;20011;-62
2022/07/23 05:03:45;;;;;;;;;;;;;;;19.47;51.79;91335.72;5071259;28;19916;-62
2022/07/23 05:06:10;;;;;;;;;;;;;;;19.62;52.00;91334.94;5070937;28;19920;-61
2022/07/23 05:08:36;;;;;;;;;;;;;;;19.72;51.18;91339.78;5071373;28;19917;-62
2022/07/23 05:11:01;;;;;;;;;;;;;;;19.81;51.08;91330.69;5071622;28;20353;-62
2022/07/23 05:13:26;;;;;;;;;;;;;;;20.03;50.70;91332.66;5071324;28;20374;-62
2022/07/23 05:15:52;;;;;;;;;;;;;;;20.12;51.10;91333.22;5071154;28;19916;-62
2022/07/23 05:18:17;;;;;;;;;;;;;;;20.38;50.64;91331.78;5071144;28;19986;-62
2022/07/23 05:20:43;;;;;;;;;;;;;;;20.66;50.43;91342.34;5071164;28;19917;-62
2022/07/23 05:23:08;;;;;;;;;;;;;;;20.97;50.23;91333.97;5065496;28;20351;-63
2022/07/23 05:25:33;;;;;;;;;;;;;;;21.21;50.01;91336.31;5050387;28;20393;-63
2022/07/23 05:27:59;;;;;;;;;;;;;;;21.61;51.39;91339.59;5050511;28;20020;-62
2022/07/23 05:30:24;;;;;;;;;;;;;;;21.88;52.09;91348.47;5050798;28;20425;-63
2022/07/23 05:32:49;;;;;;;;;;;;;;;22.05;51.84;91339.81;5050775;28;19928;-62
2022/07/23 05:35:15;;;;;;;;;;;;;;;22.33;50.72;91340.16;5050666;28;20473;-63
2022/07/23 05:37:40;;;;;;;;;;;;;;;24.47;47.32;91341.78;5050627;28;19923;-62
2022/07/23 05:40:07;;;;;;;;;;;;;;;27.33;41.16;91342.84;5050630;28;19917;-62
2022/07/23 05:42:36;;;;;;;;;;;;;;;30.01;36.63;91349.41;5050167;28;19937;-62
2022/07/23 05:45:02;;;;;;;;;;;;;;;31.55;34.40;91361.63;5053585;28;19917;-62
2022/07/23 05:47:27;;;;;;;;;;;;;;;32.48;33.48;91349.13;5054331;28;20298;-62
2022/07/23 05:49:53;;;;;;;;;;;;;;;33.59;31.62;91353.03;5054402;28;19921;-62
2022/07/23 05:52:18;;;;;;;;;;;;;;;35.35;29.89;91357.75;5054592;28;19923;-62
2022/07/23 05:54:43;;;;;;;;;;;;;;;36.37;28.47;91356.91;5054307;28;19920;-63
2022/07/23 05:57:09;;;;;;;;;;;;;;;37.24;27.95;91357.50;5053874;28;20465;-64
2022/07/23 05:59:34;;;;;;;;;;;;;;;38.02;27.33;91356.66;5054222;28;20031;-63
2022/07/23 06:01:59;;;;;;;;;;;;;;;38.91;26.32;91358.63;5054236;28;19921;-63
2022/07/23 06:04:25;;;;;;;;;;;;;;;39.80;25.27;91364.28;5053841;28;20039;-63
2022/07/23 06:06:50;;;;;;;;;;;;;;;40.18;25.05;91352.22;5054132;28;19923;-66
2022/07/23 06:09:16;;;;;;;;;;;;;;;40.92;24.40;91363.13;5054276;28;20042;-67
2022/07/23 06:11:41;;;;;;;;;;;;;;;41.48;24.75;91367.31;5053730;28;20394;-66
2022/07/23 06:14:07;;;;;;;;;;;;;;;41.59;23.30;91366.66;5054101;28;19921;-67
2022/07/23 06:16:32;;;;;;;;;;;;;;;42.44;23.96;91364.03;5054110;28;19920;-66
2022/07/23 06:18:57;;;;;;;;;;;;;;;42.31;23.03;91362.97;5053970;28;19917;-67
2022/07/23 06:21:23;;;;;;;;;;;;;;;42.47;23.62;91363.06;5054049;28;20016;-67
2022/07/23 06:23:48;;;;;;;;;;;;;;;42.13;23.39;91352.91;5053819;28;19917;-67
2022/07/23 06:26:14;;;;;;;;;;;;;;;42.95;22.78;91353.16;5053775;28;20233;-67
2022/07/23 06:28:39;;;;;;;;;;;;;;;43.15;22.51;91355.00;5070976;28;19927;-64
2022/07/23 06:31:05;;;;;;;;;;;;;;;44.09;22.34;91348.84;5073630;28;19928;-65
2022/07/23 06:33:30;;;;;;;;;;;;;;;45.13;21.32;91358.81;5073789;28;20339;-67
2022/07/23 06:35:55;;;;;;;;;;;;;;;45.41;20.81;91353.09;5073617;28;19917;-66
2022/07/23 06:38:20;;;;;;;;;;;;;;;45.45;21.23;91347.97;5073508;28;19916;-66
2022/07/23 06:40:46;;;;;;;;;;;;;;;45.32;19.95;91356.97;5073480;28;19917;-66
2022/07/23 06:43:11;;;;;;;;;;;;;;;45.68;20.44;91354.22;5073142;28;20050;-67
2022/07/23 06:45:36;;;;;;;;;;;;;;;45.93;20.98;91357.91;5072750;28;19917;-65
2022/07/23 06:48:02;;;;;;;;;;;;;;;45.21;21.38;91351.38;5073423;28;20440;-65
2022/07/23 06:50:28;;;;;;;;;;;;;;;44.09;22.00;91351.66;5073342;28;19925;-64
2022/07/23 06:52:53;;;;;;;;;;;;;;;44.85;20.84;91353.31;5073247;28;19916;-64
2022/07/23 06:55:19;;;;;;;;;;;;;;;46.79;19.97;91348.97;5072786;28;19938;-64
2022/07/23 06:57:44;;;;;;;;;;;;;;;47.62;18.80;91355.66;5072744;28;19931;-65
2022/07/23 07:00:10;;;;;;;;;;;;;;;48.28;18.25;91346.72;5073258;28;19947;-65
2022/07/23 07:02:35;;;;;;;;;;;;;;;48.43;19.37;91357.50;5072882;28;20367;-70
2022/07/23 07:05:01;;;;;;;;;;;;;;;47.79;20.17;91351.81;5072696;28;19920;-69
2022/07/23 07:07:26;;;;;;;;;;;;;;;48.06;20.28;91353.47;5073007;28;20002;-66
2022/07/23 07:09:51;;;;;;;;;;;;;;;49.14;19.74;91354.69;5073011;28;20022;-68
2022/07/23 07:12:16;;;;;;;;;;;;;;;49.11;18.72;91349.34;5072136;28;20061;-65
2022/07/23 07:14:42;;;;;;;;;;;;;;;48.16;19.64;91348.19;5072903;28;19916;-64
2022/07/23 07:17:07;;;;;;;;;;;;;;;48.16;20.08;91337.66;5072180;28;19923;-63
2022/07/23 07:19:33;;;;;;;;;;;;;;;48.09;19.57;91346.75;5072106;28;19920;-64
2022/07/23 07:21:58;;;;;;;;;;;;;;;46.46;20.22;91339.56;5070717;28;20422;-64
2022/07/23 07:24:23;;;;;;;;;;;;;;;46.24;21.37;91336.94;5072276;28;20392;-64
2022/07/23 07:26:49;;;;;;;;;;;;;;;44.65;21.92;91337.53;5072073;28;20003;-63
2022/07/23 07:29:14;;;;;;;;;;;;;;;46.91;20.77;91339.13;5072675;28;19925;-65
2022/07/23 07:31:39;;;;;;;;;;;;;;;47.26;20.29;91337.41;5072425;28;20313;-65
2022/07/23 07:34:05;;;;;;;;;;;;;;;46.24;20.22;91348.97;5072341;28;19916;-64
2022/07/23 07:36:30;;;;;;;;;;;;;;;46.41;19.82;91334.00;5072403;28;19917;-64
2022/07/23 07:38:56;;;;;;;;;;;;;;;48.43;20.68;91335.69;5072433;28;20002;-66
2022/07/23 07:41:26;;;;;;;;;;;;;;;49.08;18.71;91333.47;5071992;28;19916;-64
2022/07/23 07:43:51;;;;;;;;;;;;;;;49.63;17.90;91331.56;5072386;28;19920;-65
2022/07/23 07:46:16;;;;;;;;;;;;;;;50.18;17.80;91328.75;5072151;28;19917;-65
2022/07/23 07:48:42;;;;;;;;;;;;;;;49.26;18.07;91321.28;5071796;28;19924;-65
2022/07/23 07:51:09;;;;;;;;;;;;;;;49.30;18.36;91321.75;5071367;28;20014;-65
2022/07/23 07:53:34;;;;;;;;;;;;;;;50.32;17.82;91323.78;5072081;28;19920;-65
2022/07/23 07:55:59;;;;;;;;;;;;;;;49.95;17.19;91311.53;5071283;28;20401;-65
2022/07/23 07:58:25;;;;;;;;;;;;;;;49.78;16.99;91316.84;5071737;28;19930;-65
2022/07/23 08:00:51;;;;;;;;;;;;;;;48.99;17.67;91311.31;5072024;28;19918;-65
2022/07/23 08:03:16;;;;;;;;;;;;;;;47.63;16.67;91314.09;5072023;28;19950;-64
2022/07/23 08:05:42;;;;;;;;;;;;;;;49.59;16.50;91324.72;5070388;28;19920;-65
2022/07/23 08:08:09;;;;;;;;;;;;;;;51.25;15.75;91323.16;5071338;28;19920;-64
2022/07/23 08:10:34;;;;;;;;;;;;;;;51.69;15.25;91321.09;5071635;28;20027;-64
2022/07/23 08:13:00;;;;;;;;;;;;;;;47.31;17.52;91311.22;5071100;28;19990;-64
2022/07/23 08:15:27;;;;;;;;;;;;;;;45.14;18.03;91318.22;5071095;28;19917;-65
2022/07/23 08:17:52;;;;;;;;;;;;;;;44.29;20.56;91307.75;5071195;28;19917;-65
2022/07/23 08:20:18;;;;;;;;;;;;;;;46.40;18.99;91310.72;5069445;28;19921;-66
2022/07/23 08:22:54;;;;;;;;;;;;;;;46.60;18.83;91308.72;5067351;28;19923;-64
2022/07/23 08:25:21;;;;;;;;;;;;;;;47.13;17.63;91301.44;5069682;28;19920;-65
2022/07/23 08:27:47;;;;;;;;;;;;;;;45.34;18.75;91303.84;5063622;28;20015;-65
2022/07/23 08:30:12;;;;;;;;;;;;;;;44.99;18.94;91306.56;5070827;28;19995;-64
2022/07/23 08:32:59;;;;;;;;;;;;;;;46.69;17.95;91308.34;5071226;28;19931;-64
2022/07/23 08:35:29;;;;;;;;;;;;;;;45.82;18.46;91308.13;5070319;28;19917;-65
2022/07/23 08:37:55;;;;;;;;;;;;;;;47.04;17.79;91305.41;5071142;28;20386;-65
2022/07/23 08:40:21;;;;;;;;;;;;;;;47.61;17.94;91308.25;5070754;28;19920;-65
2022/07/23 08:42:50;;;;;;;;;;;;;;;45.37;18.93;91313.25;5071294;28;20330;-64
2022/07/23 08:45:20;;;;;;;;;;;;;;;44.69;19.83;91304.34;5070751;28;20011;-64
2022/07/23 08:47:47;;;;;;;;;;;;;;;44.61;20.05;91305.41;5071104;28;19920;-65
2022/07/23 08:50:13;;;;;;;;;;;;;;;43.84;19.60;91304.97;5071157;28;20088;-64
2022/07/23 08:52:39;;;;;;;;;;;;;;;43.97;19.98;91304.47;5071120;28;19959;-63
2022/07/23 08:55:05;;;;;;;;;;;;;;;43.63;20.23;91299.59;5070073;28;20709;-64
2022/07/23 08:57:31;;;;;;;;;;;;;;;45.81;19.90;91303.78;5071011;28;20416;-63
2022/07/23 08:59:56;;;;;;;;;;;;;;;46.31;18.86;91308.22;5070887;28;20378;-63
2022/07/23 09:02:21;;;;;;;;;;;;;;;44.60;20.44;91299.03;5068110;28;19916;-65
2022/07/23 09:04:47;;;;;;;;;;;;;;;43.80;19.96;91301.66;5070400;28;20497;-64
2022/07/23 09:07:13;;;;;;;;;;;;;;;45.64;19.93;91303.16;5070423;28;19920;-65
2022/07/23 09:09:38;;;;;;;;;;;;;;;46.19;19.24;91301.16;5069247;28;20019;-65
2022/07/23 09:12:05;;;;;;;;;;;;;;;46.63;18.56;91299.97;5070445;28;19916;-65
2022/07/23 09:14:44;;;;;;;;;;;;;;;46.17;19.42;91304.50;5070706;28;19921;-65
2022/07/23 09:17:14;;;;;;;;;;;;;;;46.00;19.82;91297.50;5070898;28;20031;-67
2022/07/23 09:19:40;;;;;;;;;;;;;;;45.33;19.43;91307.16;5074870;28;19924;-66
2022/07/23 09:22:22;;;;;;;;;;;;;;;46.63;18.08;91299.22;5074975;28;19974;-66
2022/07/23 09:25:06;;;;;;;;;;;;;;;46.77;18.59;91300.88;5073982;28;19923;-65
2022/07/23 09:27:52;;;;;;;;;;;;;;;44.29;19.53;91290.91;5074123;28;20006;-65
2022/07/23 09:30:17;;;;;;;;;;;;;;;42.02;21.03;91292.09;5074335;28;20005;-65
2022/07/23 09:32:43;;;;;;;;;;;;;;;42.45;19.88;91292.88;5074844;28;19975;-65
2022/07/23 09:35:08;;;;;;;;;;;;;;;41.86;21.16;91293.50;5074657;28;19928;-64
2022/07/23 09:37:33;;;;;;;;;;;;;;;43.83;20.21;91283.81;5074337;28;20373;-65
2022/07/23 09:40:06;;;;;;;;;;;;;;;45.32;18.09;91294.41;5074304;28;19916;-65
2022/07/23 09:42:32;;;;;;;;;;;;;;;46.02;17.88;91292.09;5074566;28;20008;-65
2022/07/23 09:44:58;;;;;;;;;;;;;;;46.76;18.09;91293.69;5074248;28;20055;-65
2022/07/23 09:47:24;;;;;;;;;;;;;;;47.87;17.42;91293.53;5074257;28;20317;-65
2022/07/23 09:50:08;;;;;;;;;;;;;;;47.75;16.35;91297.78;5074554;28;19924;-65
2022/07/23 09:52:35;;;;;;;;;;;;;;;45.09;17.59;91285.31;5074232;28;19916;-65
2022/07/23 09:55:02;;;;;;;;;;;;;;;46.37;16.66;91282.81;5073732;28;19916;-65
2022/07/23 09:57:27;;;;;;;;;;;;;;;42.75;19.13;91287.66;5073979;28;19916;-65
2022/07/23 09:59:57;;;;;;;;;;;;;;;43.87;19.67;91282.31;5074240;28;19920;-65
2022/07/23 10:02:23;;;;;;;;;;;;;;;43.88;17.95;91280.28;5073014;28;19923;-64
2022/07/23 10:04:48;;;;;;;;;;;;;;;44.41;19.69;91281.97;5073694;28;20010;-67
2022/07/23 10:07:16;;;;;;;;;;;;;;;45.11;17.85;91279.91;5073723;28;20466;-65
2022/07/23 10:09:42;;;;;;;;;;;;;;;44.09;18.50;91277.94;5073636;28;19917;-65
2022/07/23 10:12:25;;;;;;;;;;;;;;;44.60;18.45;91275.81;5073990;28;20016;-66
2022/07/23 10:14:50;;;;;;;;;;;;;;;44.58;18.30;91278.38;5073968;28;19950;-65
2022/07/23 10:17:16;;;;;;;;;;;;;;;45.75;17.92;91277.75;5073510;28;19920;-66
2022/07/23 10:19:42;;;;;;;;;;;;;;;45.64;18.01;91277.84;5073830;28;19916;-66
2022/07/23 10:22:07;;;;;;;;;;;;;;;44.78;18.51;91284.41;5073814;28;20496;-67
2022/07/23 10:25:05;;;;;;;;;;;;;;;44.00;19.08;91275.38;5073147;28;19921;-65
2022/07/23 10:27:33;;;;;;;;;;;;;;;43.96;19.66;91270.03;5039774;28;20462;-65
2022/07/23 10:30:01;;;;;;;;;;;;;;;43.87;18.67;91267.50;5073134;28;20274;-64
2022/07/23 10:32:35;;;;;;;;;;;;;;;43.07;20.08;91264.34;5073809;28;19970;-64
2022/07/23 10:35:00;;;;;;;;;;;;;;;45.17;18.68;91269.44;5073812;28;20309;-64
2022/07/23 10:37:32;;;;;;;;;;;;;;;45.38;19.37;91269.81;5072687;28;20390;-65
2022/07/23 10:40:23;;;;;;;;;;;;;;;45.73;18.59;91265.50;5074074;28;19924;-65
2022/07/23 10:42:51;;;;;;;;;;;;;;;46.63;18.49;91268.25;5070452;28;19917;-65
2022/07/23 10:45:23;;;;;;;;;;;;;;;47.37;18.05;91264.75;5073703;28;19924;-65
2022/07/23 10:47:50;;;;;;;;;;;;;;;46.63;19.01;91256.97;5072279;28;19917;-65
2022/07/23 10:50:25;;;;;;;;;;;;;;;45.20;18.38;91248.72;5073507;28;19920;-64
2022/07/23 10:53:08;;;;;;;;;;;;;;;44.52;19.76;91250.34;5073356;28;19943;-64
2022/07/23 10:55:33;;;;;;;;;;;;;;;44.80;19.16;91256.56;5072863;28;20007;-65
2022/07/23 10:57:59;;;;;;;;;;;;;;;44.79;18.67;91255.03;5072743;28;19955;-65
2022/07/23 11:00:26;;;;;;;;;;;;;;;43.97;19.21;91249.16;5073135;28;19928;-65
2022/07/23 11:02:52;;;;;;;;;;;;;;;44.34;18.80;91242.44;5073476;28;19931;-65
2022/07/23 11:05:37;;;;;;;;;;;;;;;44.04;17.74;91242.25;5072836;28;19927;-66
2022/07/23 11:08:03;;;;;;;;;;;;;;;43.42;19.28;91235.91;5072955;28;19916;-65
2022/07/23 11:10:35;;;;;;;;;;;;;;;43.49;19.13;91238.19;5073105;28;19912;-66
2022/07/23 11:13:19;;;;;;;;;;;;;;;44.78;18.21;91235.91;5071792;28;20290;-66
2022/07/23 11:16:08;;;;;;;;;;;;;;;44.11;18.79;91231.28;5072935;28;19949;-66
2022/07/23 11:18:53;;;;;;;;;;;;;;;45.37;19.01;91232.53;5072933;28;19916;-67
2022/07/23 11:21:31;;;;;;;;;;;;;;;46.59;17.71;91231.19;5054395;28;20395;-67
2022/07/23 11:23:56;;;;;;;;;;;;;;;45.60;17.03;91235.16;5052654;28;19940;-67
2022/07/23 11:26:40;;;;;;;;;;;;;;;44.06;17.56;91228.50;5052612;28;20287;-66
2022/07/23 11:29:21;;;;;;;;;;;;;;;43.17;18.32;91227.22;5052165;28;19928;-67
2022/07/23 11:31:54;;;;;;;;;;;;;;;43.41;17.74;91220.38;5052478;28;19917;-66
2022/07/23 11:34:25;;;;;;;;;;;;;;;45.37;16.96;91223.34;5052505;28;19920;-66
2022/07/23 11:36:50;;;;;;;;;;;;;;;45.57;16.88;91213.72;5050896;28;19920;-67
2022/07/23 11:39:16;;;;;;;;;;;;;;;45.57;17.51;91220.09;5051959;28;20011;-65
2022/07/23 11:41:45;;;;;;;;;;;;;;;44.09;17.72;91213.44;5051794;28;19917;-65
2022/07/23 11:44:33;;;;;;;;;;;;;;;44.91;17.88;91215.72;5051609;28;19975;-65
2022/07/23 11:46:59;;;;;;;;;;;;;;;45.20;17.83;91206.59;5059787;28;19959;-66
2022/07/23 11:49:25;;;;;;;;;;;;;;;44.92;17.26;91211.63;5072281;28;20003;-66
2022/07/23 11:52:06;;;;;;;;;;;;;;;45.16;17.49;91213.78;5068504;28;19946;-67
2022/07/23 11:54:31;;;;;;;;;;;;;;;44.73;16.70;91208.63;5070390;28;19927;-65
2022/07/23 11:56:58;;;;;;;;;;;;;;;45.48;16.69;91211.25;5071889;28;19913;-65
2022/07/23 11:59:24;;;;;;;;;;;;;;;45.26;14.96;91203.75;5071948;28;19916;-66
2022/07/23 12:01:57;;;;;;;;;;;;;;;43.79;15.90;91199.22;5071989;28;19912;-66
2022/07/23 12:04:22;;;;;;;;;;;;;;;45.14;16.26;91205.13;5072109;28;20428;-66
2022/07/23 12:06:47;;;;;;;;;;;;;;;44.28;16.16;91205.25;5071921;28;19956;-66
2022/07/23 12:09:13;;;;;;;;;;;;;;;44.49;18.41;91200.84;5072089;28;20436;-66
2022/07/23 12:11:38;;;;;;;;;;;;;;;44.73;17.01;91186.94;5071985;28;19924;-65
2022/07/23 12:14:03;;;;;;;;;;;;;;;44.10;17.20;91187.72;5071863;28;19916;-65
2022/07/23 12:16:29;;;;;;;;;;;;;;;43.83;17.75;91178.06;5071884;28;19916;-65
2022/07/23 12:18:55;;;;;;;;;;;;;;;43.19;17.99;91177.06;5071879;28;19927;-65
2022/07/23 12:21:22;;;;;;;;;;;;;;;42.50;18.34;91176.69;5071875;28;19943;-65
2022/07/23 12:23:48;;;;;;;;;;;;;;;41.38;18.93;91178.06;5071696;28;20389;-65
2022/07/23 12:26:13;;;;;;;;;;;;;;;42.73;17.61;91174.69;5071720;28;19916;-65
2022/07/23 12:28:39;;;;;;;;;;;;;;;45.16;15.15;91169.59;5071609;28;19916;-65
2022/07/23 12:31:05;;;;;;;;;;;;;;;44.20;16.78;91169.31;5071642;28;19920;-65
2022/07/23 12:33:31;;;;;;;;;;;;;;;44.39;16.90;91171.53;5070668;28;20015;-66
2022/07/23 12:35:58;;;;;;;;;;;;;;;42.68;18.53;91167.06;5071683;28;19917;-65
2022/07/23 12:38:24;;;;;;;;;;;;;;;42.00;18.64;91162.47;5071639;28;19920;-65
2022/07/23 12:40:54;;;;;;;;;;;;;;;41.62;18.74;91158.91;5071674;28;20409;-66
2022/07/23 12:43:22;;;;;;;;;;;;;;;42.28;17.73;91157.75;5071478;28;20378;-66
2022/07/23 12:45:49;;;;;;;;;;;;;;;41.66;18.25;91161.47;5071424;28;20425;-66